CST,Max TemperatureF,Mean TemperatureF,Min TemperatureF,Max Dew PointF,MeanDew PointF,Min DewpointF,Max Humidity, Mean Humidity, Min Humidity, Max Sea Level PressureIn, Mean Sea Level PressureIn, Min Sea Level PressureIn, Max VisibilityMiles, Mean VisibilityMiles, Min VisibilityMiles, Max Wind SpeedMPH, Mean Wind SpeedMPH, Max Gust SpeedMPH,PrecipitationIn, CloudCover, Events, WindDirDegrees
2013-11-1,44,42,40,43,39,37,100,91,82,29.76,29.54,29.27,10,9,3,17,9,24,0.04,8,Rain,303
2013-11-2,43,36,29,37,33,29,100,81,62,30.17,29.99,29.77,10,10,8,12,4,15,T,7,Rain,345
2013-11-3,47,37,27,36,31,27,100,77,53,30.29,30.22,30.13,10,7,0,18,9,25,0.00,5,Fog,143
2013-11-4,48,45,41,43,39,34,92,77,61,30.17,30.06,29.96,10,8,2,24,13,32,0.04,6,Rain,183
2013-11-5,47,39,31,39,36,31,100,80,60,30.28,30.13,29.90,10,4,0,9,3,15,0.72,6,Fog-Rain,4
2013-11-6,39,33,27,36,30,22,100,80,59,30.15,29.93,29.79,10,8,2,17,10,25,0.33,5,Rain,329
2013-11-7,37,31,25,25,22,20,92,70,48,30.22,30.18,30.15,10,9,4,16,9,21,0.00,2,,290
2013-11-8,39,33,26,34,27,24,100,82,64,30.27,30.11,29.73,10,4,0,21,8,32,0.23,7,Fog-Rain-Snow,205
2013-11-9,42,39,36,40,34,26,92,76,59,30.03,29.77,29.62,10,10,6,32,16,43,0.02,8,Rain,261
2013-11-10,43,39,35,34,28,24,75,64,53,30.30,30.18,30.04,10,10,10,22,11,28,T,6,Rain,278
2013-11-11,37,29,21,33,18,7,92,66,39,30.61,30.27,30.02,10,8,2,21,11,28,0.01,6,Snow,335
2013-11-12,26,20,14,12,9,8,80,67,54,30.72,30.69,30.62,10,10,10,13,10,,0.00,0,,308
2013-11-13,46,31,16,26,21,12,80,63,45,30.34,30.08,29.94,10,10,10,23,10,33,0.00,0,,219
2013-11-14,40,36,31,30,25,21,89,72,54,29.91,29.86,29.83,10,10,10,10,4,13,T,3,,213
2013-11-15,51,39,27,35,31,25,92,74,56,29.90,29.86,29.83,10,10,6,9,4,12,0.00,0,,177
2013-11-16,54,46,37,52,43,32,100,87,73,29.81,29.54,29.33,10,6,1,21,9,29,0.47,8,Rain,168
2013-11-17,52,43,34,49,42,27,100,85,70,29.60,29.34,29.19,10,6,0,32,12,44,0.06,6,Fog-Rain,269
2013-11-18,34,30,26,26,19,16,78,68,58,30.25,30.00,29.64,10,10,10,35,16,45,T,7,,310
2013-11-19,37,28,18,25,19,15,84,66,47,30.36,30.28,30.18,10,10,10,16,8,23,0.00,1,,147
2013-11-20,37,35,32,32,29,25,100,80,59,30.18,30.11,30.05,10,5,0,20,10,25,0.20,8,Fog-Snow,148
2013-11-21,36,33,30,34,32,25,100,89,78,30.35,30.19,30.06,10,4,0,15,5,21,0.01,8,Fog-Snow,326
2013-11-22,30,25,19,25,19,9,92,71,50,30.50,30.40,30.31,10,7,2,18,10,25,0.06,6,Snow,323
2013-11-23,19,12,5,9,1,-3,76,61,46,30.73,30.63,30.41,10,9,3,23,10,29,T,3,Snow,319
2013-11-24,23,13,2,7,1,-3,87,64,41,30.71,30.46,30.09,10,10,10,23,10,32,0.00,2,,226
2013-11-25,35,29,23,25,19,8,75,63,50,30.05,29.95,29.87,10,10,10,22,12,29,0.00,8,,248
2013-11-26,33,21,9,24,9,1,80,62,44,30.27,30.10,29.96,10,7,0,24,11,30,0.01,6,Fog-Snow,314
2013-11-27,26,16,6,18,10,3,91,69,46,30.31,30.23,30.13,10,8,1,12,5,15,0.04,4,Snow,307
2013-11-28,23,15,6,18,14,7,100,83,65,30.53,30.24,30.09,10,7,1,12,4,14,0.02,6,Snow,202
2013-11-29,25,13,0,17,9,-4,100,84,68,30.63,30.51,30.30,10,9,5,13,4,16,0.00,2,,154
2013-11-30,38,32,25,26,23,18,81,70,59,30.28,30.11,30.03,10,9,7,13,6,17,0.00,4,,243